Time;durP1;ratioP1;P1;durP2;ratioP2;P2;SDS_P1;SDS_P2;PMS_P1;PMS_P2;Temp;Humidity;BMP_temperature;BMP_pressure;BME280_temperature;BME280_humidity;BME280_pressure;Samples;Min_cycle;Max_cycle;Signal;HPM_P1;HPM_P2
2022/12/16 00:01:48;;;;;;;41.65;29.95;;;;;;;-3.00;100.00;94493.28;5111438;27;24436;-73
2022/12/16 00:04:16;;;;;;;38.55;29.05;;;;;;;-2.97;100.00;94494.88;5114353;27;24444;-73
2022/12/16 00:06:43;;;;;;;35.28;28.55;;;;;;;-2.97;100.00;94493.16;5122661;27;24444;-73
2022/12/16 00:09:10;;;;;;;36.85;27.58;;;;;;;-3.06;100.00;94487.59;5111820;27;24441;-73
2022/12/16 00:11:37;;;;;;;37.40;28.52;;;;;;;-3.16;100.00;94492.91;5114601;27;24995;-73
2022/12/16 00:14:04;;;;;;;33.50;27.35;;;;;;;-3.09;100.00;94500.34;5103746;27;24441;-73
2022/12/16 00:16:32;;;;;;;37.25;28.73;;;;;;;-3.34;100.00;94511.19;5121196;27;24433;-73
2022/12/16 00:18:58;;;;;;;34.33;27.35;;;;;;;-2.91;100.00;94502.31;5099319;27;24441;-73
2022/12/16 00:21:28;;;;;;;40.45;28.08;;;;;;;-2.96;100.00;94504.16;5121289;27;24440;-73
2022/12/16 00:23:55;;;;;;;37.58;28.00;;;;;;;-2.84;100.00;94500.41;5105965;27;24470;-73
2022/12/16 00:26:23;;;;;;;36.88;28.35;;;;;;;-3.00;100.00;94503.44;5117352;27;24436;-73
2022/12/16 00:28:49;;;;;;;44.05;27.42;;;;;;;-2.91;100.00;94507.38;5115944;27;24985;-73
2022/12/16 00:31:16;;;;;;;33.60;26.75;;;;;;;-3.04;100.00;94511.13;5113366;27;24438;-73
2022/12/16 00:33:42;;;;;;;33.05;26.48;;;;;;;-3.10;100.00;94512.16;5102148;27;24445;-73
2022/12/16 00:36:09;;;;;;;36.47;26.30;;;;;;;-3.14;100.00;94514.84;5113613;27;24452;-73
2022/12/16 00:38:36;;;;;;;33.67;26.90;;;;;;;-3.15;100.00;94514.03;5115296;27;24445;-73
2022/12/16 00:41:03;;;;;;;35.55;26.77;;;;;;;-3.50;100.00;94520.09;5111938;27;24459;-72
2022/12/16 00:43:31;;;;;;;40.08;27.55;;;;;;;-3.63;100.00;94518.78;5108838;27;24437;-73
2022/12/16 00:45:57;;;;;;;35.88;27.65;;;;;;;-3.53;100.00;94523.53;5124804;27;24433;-73
2022/12/16 00:48:24;;;;;;;33.47;27.20;;;;;;;-3.60;100.00;94516.16;5118235;27;25158;-73
2022/12/16 00:50:52;;;;;;;38.08;28.50;;;;;;;-3.67;100.00;94521.41;5124319;27;24444;-73
2022/12/16 00:53:19;;;;;;;33.90;26.63;;;;;;;-3.31;100.00;94522.94;5108663;27;24445;-73
2022/12/16 00:55:46;;;;;;;33.88;26.42;;;;;;;-3.27;100.00;94522.78;5119492;27;25049;-73
2022/12/16 00:58:13;;;;;;;35.88;27.17;;;;;;;-3.29;100.00;94516.97;5118516;27;24440;-73
2022/12/16 01:00:42;;;;;;;33.88;26.60;;;;;;;-3.42;100.00;94520.69;5119406;27;24445;-73
2022/12/16 01:03:08;;;;;;;34.47;27.92;;;;;;;-3.67;100.00;94526.47;5107138;27;24437;-73
2022/12/16 01:05:38;;;;;;;37.78;27.13;;;;;;;-3.57;100.00;94527.03;5116055;27;24599;-73
2022/12/16 01:08:05;;;;;;;38.85;27.02;;;;;;;-3.40;100.00;94534.16;5117674;27;24432;-73
2022/12/16 01:10:31;;;;;;;33.10;27.17;;;;;;;-3.43;100.00;94532.53;5123321;27;24830;-73
2022/12/16 01:12:58;;;;;;;34.40;26.97;;;;;;;-3.43;100.00;94531.72;5109178;27;24453;-73
2022/12/16 01:15:24;;;;;;;39.72;28.65;;;;;;;-3.47;100.00;94525.06;5116829;27;24438;-73
2022/12/16 01:17:52;;;;;;;36.63;26.75;;;;;;;-3.41;100.00;94535.03;5122431;27;24990;-73
2022/12/16 01:20:19;;;;;;;39.30;26.87;;;;;;;-3.42;100.00;94533.34;5119710;27;24445;-73
2022/12/16 01:22:46;;;;;;;42.70;27.33;;;;;;;-3.53;100.00;94540.44;5119713;27;24436;-73
2022/12/16 01:25:12;;;;;;;32.75;26.02;;;;;;;-3.50;100.00;94541.16;5120762;27;24429;-73
2022/12/16 01:27:39;;;;;;;34.88;26.63;;;;;;;-3.30;100.00;94548.22;5113827;27;24498;-73
2022/12/16 01:30:07;;;;;;;32.42;26.17;;;;;;;-3.28;100.00;94543.94;5118433;27;24491;-73
2022/12/16 01:32:34;;;;;;;34.55;26.95;;;;;;;-3.39;100.00;94553.53;5109942;27;24520;-73
2022/12/16 01:35:02;;;;;;;40.75;27.83;;;;;;;-3.63;100.00;94547.47;5122825;27;24444;-73
2022/12/16 01:37:28;;;;;;;29.10;24.90;;;;;;;-3.57;100.00;94557.41;5117530;27;24433;-73
2022/12/16 01:39:55;;;;;;;33.13;25.20;;;;;;;-3.40;100.00;94564.53;5120069;27;24449;-73
2022/12/16 01:42:23;;;;;;;31.98;24.38;;;;;;;-3.41;100.00;94563.72;5118278;27;24859;-73
2022/12/16 01:44:53;;;;;;;34.40;25.23;;;;;;;-3.35;100.00;94560.16;5111125;27;24457;-73
2022/12/16 01:47:24;;;;;;;31.02;24.35;;;;;;;-3.51;100.00;94567.34;5107068;27;24438;-73
2022/12/16 01:49:59;;;;;;;36.33;26.15;;;;;;;-3.59;100.00;94559.16;5110647;27;24514;-73
2022/12/16 01:52:30;;;;;;;32.40;24.92;;;;;;;-3.37;100.00;94559.38;5117800;27;24444;-73
2022/12/16 01:55:00;;;;;;;31.70;25.50;;;;;;;-3.41;100.00;94575.53;5114609;27;24437;-73
2022/12/16 01:57:33;;;;;;;33.83;25.33;;;;;;;-3.52;100.00;94573.31;5094510;28;24465;-73
2022/12/16 02:00:01;;;;;;;30.63;23.42;;;;;;;-3.50;100.00;94571.53;5110388;27;24449;-73
2022/12/16 02:02:27;;;;;;;32.85;24.75;;;;;;;-3.54;100.00;94576.75;5115418;27;24433;-73
2022/12/16 02:07:40;;;;;;;32.30;24.30;;;;;;;-3.57;100.00;94571.75;5116574;28;24525;-73
2022/12/16 02:10:10;;;;;;;29.90;23.80;;;;;;;-3.61;100.00;94576.06;5110048;28;24429;-73
2022/12/16 02:12:44;;;;;;;32.40;24.23;;;;;;;-3.69;100.00;94573.75;5113262;28;24460;-73
2022/12/16 02:15:28;;;;;;;32.75;23.67;;;;;;;-3.57;100.00;94572.59;5113798;28;24452;-73
2022/12/16 02:18:02;;;;;;;30.55;23.42;;;;;;;-3.37;100.00;94583.84;5112928;28;24426;-73
2022/12/16 02:20:59;;;;;;;28.17;22.45;;;;;;;-3.27;100.00;94587.78;5114529;28;24498;-73
2022/12/16 02:24:06;;;;;;;28.83;22.30;;;;;;;-3.12;100.00;94579.75;5101266;28;24440;-73
2022/12/16 02:26:55;;;;;;;28.85;21.58;;;;;;;-3.26;100.00;94586.94;5109329;28;24437;-73
2022/12/16 02:29:50;;;;;;;33.67;22.27;;;;;;;-3.34;100.00;94586.31;5114428;28;24436;-73
2022/12/16 02:32:25;;;;;;;31.30;22.88;;;;;;;-3.69;100.00;94581.34;5119208;28;24433;-73
2022/12/16 02:34:58;;;;;;;35.25;23.65;;;;;;;-3.55;100.00;94575.91;5109198;28;24445;-73
2022/12/16 02:37:36;;;;;;;31.20;24.08;;;;;;;-3.61;100.00;94586.19;5121113;28;24438;-73
2022/12/16 02:40:11;;;;;;;31.90;23.25;;;;;;;-3.56;100.00;94581.84;5113751;28;24519;-73
2022/12/16 02:42:42;;;;;;;31.52;22.90;;;;;;;-3.51;100.00;94587.59;5127159;27;24441;-73
2022/12/16 02:45:13;;;;;;;31.80;23.83;;;;;;;-3.66;100.00;94583.78;5116745;27;24437;-73
2022/12/16 02:47:41;;;;;;;28.48;22.63;;;;;;;-3.70;100.00;94594.03;5113191;27;24441;-73
2022/12/16 02:50:17;;;;;;;35.53;21.98;;;;;;;-3.63;100.00;94594.69;5108726;27;25041;-73
2022/12/16 02:52:43;;;;;;;29.52;22.00;;;;;;;-3.72;100.00;94601.66;5121618;27;24444;-73
2022/12/16 02:55:10;;;;;;;30.65;21.90;;;;;;;-3.71;100.00;94595.75;5115337;27;24468;-73
2022/12/16 02:58:03;;;;;;;28.40;21.70;;;;;;;-3.88;100.00;94602.94;5125876;27;24437;-73
2022/12/16 03:00:40;;;;;;;29.48;23.02;;;;;;;-3.94;100.00;94608.97;5116120;27;24472;-73
2022/12/16 03:03:13;;;;;;;30.58;21.98;;;;;;;-3.79;100.00;94615.34;5120465;27;24434;-73
2022/12/16 03:05:47;;;;;;;27.90;21.10;;;;;;;-3.65;100.00;94625.09;5114371;27;24517;-73
2022/12/16 03:08:18;;;;;;;27.05;20.92;;;;;;;-3.61;100.00;94626.69;5116896;27;24437;-73
2022/12/16 03:10:48;;;;;;;29.20;22.00;;;;;;;-3.56;100.00;94618.97;5120550;27;25017;-73
2022/12/16 03:13:18;;;;;;;28.10;20.95;;;;;;;-3.53;100.00;94623.94;5118611;27;24438;-73
2022/12/16 03:15:48;;;;;;;25.63;21.15;;;;;;;-3.53;100.00;94626.47;5120866;27;24428;-73
2022/12/16 03:18:16;;;;;;;29.02;20.85;;;;;;;-3.85;100.00;94625.63;5120417;27;24430;-73
2022/12/16 03:20:47;;;;;;;27.90;20.88;;;;;;;-4.01;100.00;94629.41;5120559;27;25013;-73
2022/12/16 03:23:18;;;;;;;28.25;21.27;;;;;;;-3.84;100.00;94623.94;5118614;27;24469;-73
2022/12/16 03:25:48;;;;;;;28.48;20.38;;;;;;;-3.91;100.00;94624.06;5129533;27;24433;-73
2022/12/16 03:28:24;;;;;;;26.63;20.85;;;;;;;-4.02;100.00;94625.22;5123608;27;24429;-73
2022/12/16 03:31:01;;;;;;;29.20;21.63;;;;;;;-4.11;100.00;94628.81;5112056;27;25080;-73
2022/12/16 03:33:35;;;;;;;27.20;20.35;;;;;;;-4.00;100.00;94639.50;5118148;27;24513;-73
2022/12/16 03:36:06;;;;;;;28.65;21.75;;;;;;;-3.92;100.00;94629.19;5128981;27;24436;-73
2022/12/16 03:38:34;;;;;;;27.55;20.52;;;;;;;-3.75;100.00;94638.84;5121640;27;24796;-73
2022/12/16 03:41:03;;;;;;;30.67;21.83;;;;;;;-3.84;100.00;94632.34;5113164;27;24850;-73
2022/12/16 03:43:29;;;;;;;26.67;20.83;;;;;;;-4.07;100.00;94640.50;5107610;27;24438;-73
2022/12/16 03:46:02;;;;;;;29.15;21.05;;;;;;;-4.01;100.00;94637.81;5123212;27;24433;-73
2022/12/16 03:48:30;;;;;;;28.58;21.05;;;;;;;-3.95;100.00;94636.84;5106180;27;24441;-73
2022/12/16 03:50:57;;;;;;;27.52;21.20;;;;;;;-3.90;100.00;94642.59;5119845;27;24453;-73
2022/12/16 03:53:25;;;;;;;26.38;20.35;;;;;;;-3.85;100.00;94640.81;5114942;27;24438;-73
2022/12/16 03:55:52;;;;;;;24.10;19.70;;;;;;;-3.83;100.00;94644.09;5113308;27;24433;-73
2022/12/16 03:58:18;;;;;;;25.58;20.15;;;;;;;-3.81;100.00;94644.91;5116408;27;24437;-73
2022/12/16 04:00:45;;;;;;;26.03;20.30;;;;;;;-3.68;100.00;94646.25;5124612;27;24515;-73
2022/12/16 04:03:11;;;;;;;26.75;20.33;;;;;;;-3.78;100.00;94644.84;5111180;28;25007;-73
2022/12/16 04:05:39;;;;;;;28.80;20.90;;;;;;;-3.86;100.00;94644.19;5119646;27;24436;-73
2022/12/16 04:08:06;;;;;;;25.65;20.52;;;;;;;-3.81;100.00;94652.50;5121297;27;24449;-73
2022/12/16 04:24:19;;;;;;;26.38;20.35;;;;;;;-3.62;100.00;94662.16;5097793;28;24452;-73
2022/12/16 04:29:30;;;;;;;25.92;19.83;;;;;;;-3.50;100.00;94670.25;5114386;27;24417;-73
2022/12/16 04:31:57;;;;;;;25.00;19.45;;;;;;;-3.75;100.00;94669.22;5114347;27;24440;-73
2022/12/16 04:34:27;;;;;;;25.00;18.60;;;;;;;-3.71;100.00;94675.84;5105880;27;24445;-73
